Time;durP1;ratioP1;P1;durP2;ratioP2;P2;SDS_P1;SDS_P2;PMS_P1;PMS_P2;Temp;Humidity;BMP_temperature;BMP_pressure;BME280_temperature;BME280_humidity;BME280_pressure;Samples;Min_cycle;Max_cycle;Signal;HPM_P1;HPM_P2
2022/06/09 00:01:26;;;;;;;79.63;73.43;;;;;;;15.27;100.00;101095.80;2028590;70;24117;-70
2022/06/09 00:04:00;;;;;;;82.53;76.33;;;;;;;15.12;100.00;101093.28;2027021;70;26235;-70
2022/06/09 00:06:33;;;;;;;78.77;72.40;;;;;;;15.03;100.00;101094.57;1937668;74;26659;-70
2022/06/09 00:09:06;;;;;;;77.20;71.00;;;;;;;15.14;100.00;101098.84;1930958;74;26214;-71
2022/06/09 00:11:39;;;;;;;79.40;73.10;;;;;;;15.08;100.00;101110.43;1931713;74;26730;-71
2022/06/09 00:14:10;;;;;;;79.63;73.73;;;;;;;15.05;100.00;101107.70;1931090;74;26650;-71
2022/06/09 00:16:41;;;;;;;79.80;73.53;;;;;;;15.05;100.00;101107.70;1888313;73;26311;-71
2022/06/09 00:19:13;;;;;;;80.03;73.77;;;;;;;15.09;100.00;101107.34;1974536;72;26207;-70
2022/06/09 00:21:43;;;;;;;82.30;75.70;;;;;;;15.06;100.00;101111.33;1970719;72;26215;-70
2022/06/09 00:24:13;;;;;;;77.87;71.83;;;;;;;15.05;100.00;101103.50;1980107;71;24199;-70
2022/06/09 00:26:44;;;;;;;79.43;73.20;;;;;;;15.02;100.00;101114.72;1980399;72;26296;-71
2022/06/09 00:29:14;;;;;;;79.17;73.00;;;;;;;14.97;100.00;101119.60;1980219;72;26176;-70
2022/06/09 00:31:45;;;;;;;85.33;78.70;;;;;;;14.93;100.00;101124.16;1980280;72;26685;-71
2022/06/09 00:34:15;;;;;;;81.17;74.27;;;;;;;14.96;100.00;101129.96;1980396;72;26669;-71
2022/06/09 00:36:46;;;;;;;81.03;73.97;;;;;;;14.93;100.00;101134.75;1979794;72;26285;-70
2022/06/09 00:39:16;;;;;;;78.27;72.07;;;;;;;14.93;100.00;101130.55;1979791;72;26210;-70
2022/06/09 00:41:47;;;;;;;76.27;70.20;;;;;;;14.93;100.00;101137.55;1979549;72;26280;-70
2022/06/09 00:44:20;;;;;;;77.50;71.67;;;;;;;14.91;100.00;101141.80;1979633;72;26295;-70
2022/06/09 00:50:02;;;;;;;82.10;75.53;;;;;;;14.84;100.00;101137.19;2044623;69;32699;-70
2022/06/09 00:55:41;;;;;;;80.03;73.60;;;;;;;14.82;100.00;101142.23;2053007;69;32642;-71
2022/06/09 00:58:14;;;;;;;77.50;71.73;;;;;;;14.78;100.00;101159.37;1935432;73;26730;-71
2022/06/09 01:00:48;;;;;;;80.23;73.83;;;;;;;14.72;100.00;101158.61;1929039;73;26205;-71
2022/06/09 01:03:21;;;;;;;81.93;75.87;;;;;;;14.71;100.00;101157.55;1966559;72;26225;-71
2022/06/09 01:05:54;;;;;;;81.17;74.47;;;;;;;14.67;100.00;101165.72;1966047;73;26742;-68
2022/06/09 01:08:24;;;;;;;79.00;72.90;;;;;;;14.69;100.00;101171.81;1937608;73;26733;-68
2022/06/09 01:10:55;;;;;;;77.57;71.40;;;;;;;14.67;100.00;101174.67;1943991;73;26291;-68
2022/06/09 01:13:27;;;;;;;80.83;74.93;;;;;;;14.63;100.00;101168.86;1906143;75;26315;-68
2022/06/09 01:19:12;;;;;;;84.53;78.00;;;;;;;14.63;100.00;101172.22;2033075;69;32577;-70
2022/06/09 01:21:57;;;;;;;84.27;77.87;;;;;;;14.54;100.00;101182.70;2014868;70;26731;-70
2022/06/09 01:28:48;;;;;;;87.33;80.73;;;;;;;14.51;100.00;101188.88;2060579;69;32740;-70
2022/06/09 01:31:21;;;;;;;84.27;77.93;;;;;;;14.39;100.00;101194.09;2015232;71;26216;-70
2022/06/09 01:33:55;;;;;;;86.37;79.83;;;;;;;14.43;100.00;101204.10;1968447;72;26198;-70
2022/06/09 01:36:29;;;;;;;81.30;74.57;;;;;;;14.41;100.00;101202.19;1937785;74;26188;-70
2022/06/09 01:39:03;;;;;;;81.83;74.80;;;;;;;14.39;100.00;101210.87;1937781;73;26297;-71
2022/06/09 01:41:34;;;;;;;84.87;78.67;;;;;;;14.39;100.00;101205.28;1924177;74;26213;-70
2022/06/09 01:44:05;;;;;;;81.67;75.43;;;;;;;14.42;100.00;101208.02;1931188;73;26698;-70
2022/06/09 01:46:37;;;;;;;82.43;76.10;;;;;;;14.45;100.00;101205.48;1965972;73;26660;-70
2022/06/09 01:49:11;;;;;;;79.50;73.53;;;;;;;14.40;100.00;101208.91;1937613;74;26180;-70
2022/06/09 01:51:45;;;;;;;82.80;76.40;;;;;;;14.36;100.00;101214.27;1935815;74;26302;-70
2022/06/09 01:54:19;;;;;;;86.53;80.00;;;;;;;14.37;100.00;101215.95;1937546;74;26248;-70
2022/06/09 01:56:52;;;;;;;85.83;79.43;;;;;;;14.27;100.00;101218.00;1924029;74;26734;-70
2022/06/09 01:59:26;;;;;;;85.63;79.13;;;;;;;14.23;100.00;101221.97;1929857;73;26211;-70
2022/06/09 02:01:59;;;;;;;85.53;78.73;;;;;;;14.27;100.00;101223.59;1935688;73;26698;-71
2022/06/09 02:04:32;;;;;;;82.67;76.23;;;;;;;14.29;100.00;101217.95;2011104;70;26210;-70
2022/06/09 02:07:05;;;;;;;85.97;79.37;;;;;;;14.23;100.00;101216.95;1958972;72;26224;-71
2022/06/09 02:09:40;;;;;;;82.93;76.40;;;;;;;14.22;100.00;101221.70;1930959;74;26301;-70
2022/06/09 02:12:13;;;;;;;88.53;81.77;;;;;;;14.07;100.00;101226.11;1938996;73;26292;-70
2022/06/09 02:14:47;;;;;;;87.63;81.07;;;;;;;14.15;100.00;101226.84;1941843;74;26196;-70
2022/06/09 02:17:18;;;;;;;85.27;78.67;;;;;;;14.14;100.00;101229.36;1941485;73;26722;-70
2022/06/09 02:19:51;;;;;;;88.33;81.47;;;;;;;14.06;100.00;101223.87;1934955;74;26207;-70
2022/06/09 02:22:21;;;;;;;89.43;82.50;;;;;;;14.03;100.00;101229.23;1937796;73;26259;-70
2022/06/09 02:24:51;;;;;;;87.03;79.63;;;;;;;13.93;100.00;101227.40;1931820;74;26271;-70
2022/06/09 02:27:21;;;;;;;86.70;79.60;;;;;;;13.97;100.00;101234.61;1937471;72;26301;-70
2022/06/09 02:29:52;;;;;;;87.70;81.00;;;;;;;13.88;100.00;101232.20;1931767;74;26188;-70
2022/06/09 02:32:22;;;;;;;91.23;84.33;;;;;;;13.86;100.00;101238.67;1937503;74;26188;-71
2022/06/09 02:34:52;;;;;;;92.20;84.80;;;;;;;13.81;100.00;101243.75;1937571;74;26710;-70
2022/06/09 02:37:22;;;;;;;86.70;80.10;;;;;;;13.75;100.00;101244.92;1937502;74;26285;-70
2022/06/09 02:39:53;;;;;;;84.90;78.23;;;;;;;13.69;100.00;101247.52;1936925;74;26220;-70
2022/06/09 02:42:23;;;;;;;86.17;79.47;;;;;;;13.67;100.00;101257.58;1936992;74;26216;-70
2022/06/09 02:44:55;;;;;;;88.07;80.90;;;;;;;13.66;100.00;101261.49;1931170;74;26213;-70
2022/06/09 02:47:25;;;;;;;87.27;80.17;;;;;;;13.48;100.00;101261.40;1936985;74;26302;-70
2022/06/09 02:49:55;;;;;;;92.23;85.37;;;;;;;13.47;100.00;101259.20;1936942;74;26208;-70
2022/06/09 02:52:25;;;;;;;88.70;81.67;;;;;;;13.58;100.00;101264.09;1931068;74;26730;-70
2022/06/09 02:54:55;;;;;;;85.43;78.60;;;;;;;13.38;100.00;101267.94;1936919;74;26294;-70
2022/06/09 03:00:32;;;;;;;82.80;76.47;;;;;;;13.40;100.00;101264.27;2060814;69;32619;-70
2022/06/09 03:03:05;;;;;;;82.23;75.47;;;;;;;13.28;100.00;101278.34;1950438;73;26204;-70
2022/06/09 03:05:37;;;;;;;81.80;75.20;;;;;;;13.46;100.00;101287.39;2019542;70;26630;-70
2022/06/09 03:08:09;;;;;;;85.60;78.50;;;;;;;13.37;100.00;101285.80;1993165;70;26218;-70
2022/06/09 03:10:39;;;;;;;83.17;76.47;;;;;;;13.44;100.00;101287.67;1976392;72;26225;-71
2022/06/09 03:13:09;;;;;;;85.30;78.80;;;;;;;13.35;100.00;101282.45;1977431;72;26186;-71
2022/06/09 03:15:40;;;;;;;82.80;76.17;;;;;;;13.29;100.00;101288.39;1975858;72;26197;-70
2022/06/09 03:18:11;;;;;;;83.37;76.17;;;;;;;13.22;100.00;101292.33;1975662;72;26205;-70
2022/06/09 03:20:41;;;;;;;82.17;75.50;;;;;;;13.12;100.00;101299.97;1975568;72;26197;-70
2022/06/09 03:23:12;;;;;;;84.57;77.40;;;;;;;13.05;100.00;101301.65;1984711;72;26243;-70
2022/06/09 03:25:43;;;;;;;83.27;76.67;;;;;;;13.15;100.00;101309.98;1986243;72;26247;-70
2022/06/09 03:28:14;;;;;;;86.40;79.30;;;;;;;13.32;100.00;101310.11;1979285;72;26301;-70
2022/06/09 03:30:44;;;;;;;85.97;79.33;;;;;;;13.36;100.00;101311.19;1982908;72;26232;-70
2022/06/09 03:33:16;;;;;;;87.87;80.97;;;;;;;13.35;100.00;101315.13;1980504;72;26321;-70
2022/06/09 03:35:46;;;;;;;88.53;81.57;;;;;;;13.45;100.00;101322.00;1987556;72;26205;-70
2022/06/09 03:38:16;;;;;;;91.67;84.43;;;;;;;13.39;100.00;101321.80;1980073;72;26685;-71
2022/06/09 03:40:47;;;;;;;87.10;80.27;;;;;;;13.35;100.00;101315.13;1972021;72;26234;-70
2022/06/09 03:43:17;;;;;;;88.73;81.43;;;;;;;13.17;100.00;101322.25;1972455;72;26192;-70
2022/06/09 03:45:48;;;;;;;90.40;83.07;;;;;;;13.29;100.00;101324.09;1980878;72;26235;-70
2022/06/09 03:48:19;;;;;;;83.53;77.13;;;;;;;13.15;100.00;101330.91;1971220;72;26306;-70
2022/06/09 03:50:49;;;;;;;83.93;77.33;;;;;;;13.16;100.00;101328.39;1972346;72;26189;-70
2022/06/09 03:53:20;;;;;;;82.70;75.43;;;;;;;13.04;100.00;101329.30;1980377;72;26193;-70
2022/06/09 03:55:50;;;;;;;83.60;76.90;;;;;;;13.04;100.00;101343.80;1978076;72;26197;-70
2022/06/09 03:58:20;;;;;;;82.87;76.57;;;;;;;13.06;100.00;101347.11;1980806;72;26656;-70
2022/06/09 04:03:56;;;;;;;83.63;77.03;;;;;;;13.13;100.00;101346.27;2053616;69;32609;-70
2022/06/09 04:06:27;;;;;;;81.97;75.47;;;;;;;13.10;100.00;101356.56;1938913;73;26214;-70
2022/06/09 04:08:58;;;;;;;83.57;76.77;;;;;;;12.94;100.00;101351.66;1904239;74;26670;-70
2022/06/09 04:11:28;;;;;;;85.30;78.57;;;;;;;12.95;100.00;101353.33;1906587;74;26288;-70
2022/06/09 04:13:58;;;;;;;86.20;79.10;;;;;;;13.00;100.00;101355.26;1906838;75;26291;-70
2022/06/09 04:16:33;;;;;;;82.50;75.07;;;;;;;13.07;100.00;101364.12;1899966;74;26692;-70
2022/06/09 04:19:07;;;;;;;84.43;77.33;;;;;;;13.06;100.00;101363.28;1896058;74;26267;-70
2022/06/09 04:21:38;;;;;;;84.93;77.50;;;;;;;13.09;100.00;101364.68;1900761;74;26222;-70
2022/06/09 04:24:10;;;;;;;86.37;79.13;;;;;;;13.05;100.00;101373.36;1900893;74;26223;-69
2022/06/09 04:26:42;;;;;;;83.20;76.80;;;;;;;13.10;100.00;101369.11;1901828;74;26649;-70
2022/06/09 04:29:13;;;;;;;87.43;80.17;;;;;;;13.15;100.00;101366.33;1909894;74;26697;-70
2022/06/09 04:31:45;;;;;;;83.97;77.07;;;;;;;13.15;100.00;101366.33;1900614;74;26772;-70
2022/06/09 04:34:15;;;;;;;81.60;74.60;;;;;;;13.15;100.00;101371.91;1908787;74;26307;-70
2022/06/09 04:36:46;;;;;;;81.80;74.90;;;;;;;13.16;100.00;101381.39;1919108;74;26202;-70
2022/06/09 04:39:16;;;;;;;87.83;80.13;;;;;;;13.21;100.00;101381.92;1898616;74;26227;-70
2022/06/09 04:41:46;;;;;;;86.97;80.10;;;;;;;13.23;100.00;101386.63;1900839;74;26278;-71
2022/06/09 04:44:18;;;;;;;85.83;79.13;;;;;;;13.31;100.00;101390.19;1900823;74;26226;-70
2022/06/09 04:46:49;;;;;;;88.13;81.30;;;;;;;13.29;100.00;101397.20;1900444;74;26303;-71
2022/06/09 04:49:19;;;;;;;88.90;81.47;;;;;;;13.32;100.00;101401.63;1906220;74;26658;-70
2022/06/09 04:51:49;;;;;;;94.60;87.33;;;;;;;13.36;100.00;101399.92;1900982;74;26307;-70
2022/06/09 04:57:30;;;;;;;91.17;83.97;;;;;;;13.35;100.00;101395.46;2052971;69;32703;-70
2022/06/09 05:00:00;;;;;;;91.63;84.47;;;;;;;13.33;100.00;101407.48;1945459;73;26317;-70
2022/06/09 05:02:30;;;;;;;92.83;85.23;;;;;;;13.34;100.00;101409.17;1954182;73;26191;-70
2022/06/09 05:05:01;;;;;;;89.13;81.63;;;;;;;13.37;100.00;101412.77;1967212;72;26369;-70
2022/06/09 05:07:31;;;;;;;86.37;78.77;;;;;;;13.41;100.00;101418.03;1937645;74;26215;-70
2022/06/09 05:10:02;;;;;;;89.87;82.33;;;;;;;13.37;100.00;101419.73;1931829;74;26286;-70
2022/06/09 05:12:32;;;;;;;92.73;85.30;;;;;;;13.55;100.00;101424.63;1931116;74;26322;-70
2022/06/09 05:15:03;;;;;;;89.17;81.50;;;;;;;13.49;100.00;101429.97;1896919;74;26300;-70
2022/06/09 05:20:40;;;;;;;90.83;82.57;;;;;;;13.56;100.00;101436.05;2060822;69;32254;-70
2022/06/09 05:23:10;;;;;;;88.57;81.33;;;;;;;13.48;100.00;101448.39;1939557;73;26220;-70
2022/06/09 05:25:40;;;;;;;92.73;85.13;;;;;;;13.54;100.00;101443.89;1937615;73;26683;-70
2022/06/09 05:28:11;;;;;;;88.87;81.63;;;;;;;13.58;100.00;101455.30;1967083;72;26673;-70
2022/06/09 05:30:42;;;;;;;88.13;81.10;;;;;;;13.52;100.00;101461.47;1947822;73;26647;-70
2022/06/09 05:33:13;;;;;;;91.60;84.10;;;;;;;13.54;100.00;101461.20;1938673;73;26181;-70
2022/06/09 05:35:43;;;;;;;89.77;82.60;;;;;;;13.61;100.00;101465.32;1936296;73;26246;-71
2022/06/09 05:46:45;;;;;;;85.73;78.40;;;;;;;14.09;100.00;101476.66;1967861;72;26696;-69
2022/06/09 05:49:16;;;;;;;86.07;78.47;;;;;;;14.17;100.00;101481.60;1938631;73;26267;-69
2022/06/09 05:51:52;;;;;;;84.03;76.87;;;;;;;14.23;100.00;101481.00;1937683;74;26277;-69
2022/06/09 05:54:22;;;;;;;88.63;81.37;;;;;;;14.32;100.00;101477.84;1937620;73;26216;-69
2022/06/09 05:56:52;;;;;;;84.03;76.40;;;;;;;14.35;100.00;101482.30;1933971;73;26208;-69
2022/06/09 05:59:23;;;;;;;85.77;78.33;;;;;;;14.43;100.00;101481.66;1938022;73;26329;-69
2022/06/09 06:01:53;;;;;;;84.80;77.03;;;;;;;14.43;100.00;101490.04;1949833;73;26592;-69
2022/06/09 06:04:23;;;;;;;86.10;79.07;;;;;;;14.49;100.00;101501.45;1934355;73;26212;-68
2022/06/09 06:06:53;;;;;;;87.53;80.10;;;;;;;14.59;100.00;101497.69;1940220;73;26281;-69
2022/06/09 06:09:24;;;;;;;90.23;83.07;;;;;;;14.60;100.00;101499.36;1931705;74;26173;-69
2022/06/09 06:11:54;;;;;;;90.37;83.03;;;;;;;14.66;100.00;101497.35;1932066;74;26208;-68
2022/06/09 06:14:26;;;;;;;93.07;85.80;;;;;;;14.70;100.00;101496.46;1931920;74;26207;-69
2022/06/09 06:16:57;;;;;;;92.10;85.17;;;;;;;14.76;100.00;101500.84;1935839;74;26720;-68
2022/06/09 06:19:32;;;;;;;85.90;78.60;;;;;;;14.78;100.00;101502.80;1931717;72;26301;-70
2022/06/09 06:22:02;;;;;;;95.23;87.70;;;;;;;14.87;100.00;101507.17;1931912;74;26253;-69
2022/06/09 06:24:33;;;;;;;99.10;91.60;;;;;;;14.98;100.00;101510.94;1931713;74;26234;-69
2022/06/09 06:27:03;;;;;;;94.23;86.73;;;;;;;15.11;100.00;101509.94;1931823;74;26277;-65
2022/06/09 06:29:33;;;;;;;90.43;83.40;;;;;;;15.25;100.00;101514.52;1931685;74;26213;-67
2022/06/09 06:32:04;;;;;;;91.70;84.80;;;;;;;15.34;100.00;101521.67;1931087;74;26249;-66
2022/06/09 06:34:35;;;;;;;91.80;84.70;;;;;;;15.32;100.00;101523.36;1930979;74;26163;-66
2022/06/09 06:37:06;;;;;;;93.13;85.77;;;;;;;15.38;100.00;101527.77;1931086;74;26294;-66
2022/06/09 06:39:38;;;;;;;92.07;84.80;;;;;;;15.51;100.00;101529.59;1931164;74;26250;-66
2022/06/09 06:42:09;;;;;;;90.43;83.60;;;;;;;15.54;100.00;101523.38;1930998;74;26184;-66
2022/06/09 06:44:40;;;;;;;84.20;77.33;;;;;;;15.60;100.00;101527.78;1931024;74;26782;-65
2022/06/09 06:47:11;;;;;;;84.47;77.93;;;;;;;15.65;100.00;101523.52;1930983;74;26219;-66
2022/06/09 06:49:42;;;;;;;87.13;80.47;;;;;;;15.64;100.00;101521.84;1931237;74;26193;-66
2022/06/09 06:52:13;;;;;;;84.57;77.67;;;;;;;15.61;100.00;101523.86;1931115;74;26285;-66
2022/06/09 06:54:43;;;;;;;77.63;71.23;;;;;;;15.69;100.00;101525.97;1931158;74;26251;-67
2022/06/09 06:57:20;;;;;;;75.87;69.87;;;;;;;15.67;100.00;101524.02;1931093;74;26220;-66
2022/06/09 06:59:50;;;;;;;83.63;77.57;;;;;;;15.74;100.00;101525.90;1931114;74;26308;-66
2022/06/09 07:02:21;;;;;;;76.47;70.13;;;;;;;15.86;100.00;101526.27;1931208;74;26294;-67
2022/06/09 07:04:51;;;;;;;80.33;73.47;;;;;;;15.88;100.00;101526.77;1931129;74;26651;-67
2022/06/09 07:07:21;;;;;;;82.00;75.57;;;;;;;15.98;100.00;101532.80;1931017;74;26787;-66
2022/06/09 07:09:54;;;;;;;82.47;76.20;;;;;;;15.92;100.00;101528.66;1931068;74;24125;-66
2022/06/09 07:12:24;;;;;;;73.63;67.97;;;;;;;15.85;100.00;101533.00;1931126;74;26725;-66
2022/06/09 07:14:56;;;;;;;89.10;82.90;;;;;;;15.81;100.00;101531.94;1931116;74;26694;-66
2022/06/09 07:17:27;;;;;;;97.63;91.73;;;;;;;15.75;100.00;101528.37;1931081;74;26433;-66
2022/06/09 07:19:58;;;;;;;97.57;91.17;;;;;;;15.71;100.00;101530.69;1930932;72;26295;-65
2022/06/09 07:22:29;;;;;;;80.67;74.53;;;;;;;15.67;100.00;101535.23;1931072;74;26252;-66
2022/06/09 07:25:00;;;;;;;80.53;74.53;;;;;;;15.82;100.00;101536.41;1931053;74;26247;-66
2022/06/09 07:27:31;;;;;;;80.13;74.07;;;;;;;15.92;100.00;101537.64;1931124;74;26384;-68
2022/06/09 07:30:01;;;;;;;78.30;72.63;;;;;;;15.94;100.00;101545.19;1931256;74;26215;-65
2022/06/09 07:32:32;;;;;;;77.97;72.67;;;;;;;16.25;100.00;101542.16;1930999;74;26637;-66
2022/06/09 07:35:03;;;;;;;75.20;70.07;;;;;;;16.56;100.00;101543.02;1931140;74;26730;-69
2022/06/09 07:37:33;;;;;;;72.37;66.87;;;;;;;16.79;100.00;101543.44;1931168;74;26220;-67
2022/06/09 07:40:04;;;;;;;68.87;63.30;;;;;;;17.10;100.00;101544.50;1931197;74;26194;-67
2022/06/09 07:42:35;;;;;;;65.60;60.87;;;;;;;17.10;100.00;101544.50;1930965;74;26186;-67
2022/06/09 07:45:09;;;;;;;61.03;56.77;;;;;;;17.39;100.00;101540.51;1930988;74;24133;-67
2022/06/09 07:47:40;;;;;;;62.47;57.77;;;;;;;17.25;100.00;101547.54;1931223;74;26207;-66
2022/06/09 07:50:12;;;;;;;60.87;56.27;;;;;;;17.44;100.00;101536.19;1931022;74;24128;-66
2022/06/09 07:52:43;;;;;;;59.43;55.33;;;;;;;17.62;100.00;101528.23;1931080;74;24125;-67
2022/06/09 07:55:14;;;;;;;58.13;54.33;;;;;;;17.89;100.00;101521.67;1930999;74;26366;-67
2022/06/09 07:57:44;;;;;;;47.40;44.33;;;;;;;18.00;100.00;101519.72;1931073;74;26679;-67
2022/06/09 08:00:17;;;;;;;48.97;46.00;;;;;;;18.22;100.00;101516.08;1931009;74;26777;-67
2022/06/09 08:02:47;;;;;;;50.87;47.30;;;;;;;18.30;100.00;101515.88;1931073;74;24113;-67
2022/06/09 08:05:20;;;;;;;49.17;46.03;;;;;;;18.34;100.00;101514.91;1931011;74;24202;-67
2022/06/09 08:07:51;;;;;;;46.83;43.70;;;;;;;18.65;100.00;101512.95;1931112;74;24218;-66
2022/06/09 08:10:25;;;;;;;52.13;48.97;;;;;;;18.65;100.00;101514.96;1931172;74;24153;-67
2022/06/09 08:12:58;;;;;;;41.67;38.80;;;;;;;18.99;100.00;101509.48;1931123;74;24223;-66
2022/06/09 08:15:30;;;;;;;50.13;46.83;;;;;;;18.89;100.00;101515.97;1930988;74;24276;-66
2022/06/09 08:18:03;;;;;;;48.47;45.43;;;;;;;18.62;100.00;101518.41;1931088;74;24129;-67
2022/06/09 08:20:44;;;;;;;44.97;41.53;;;;;;;18.83;100.00;101522.88;1930965;72;24256;-67
2022/06/09 08:26:23;;;;;;;24.07;22.43;;;;;;;19.14;100.00;101509.59;2034269;69;30502;-68
2022/06/09 08:28:53;;;;;;;22.93;21.27;;;;;;;19.31;100.00;101503.17;1935612;73;24204;-68
2022/06/09 08:31:24;;;;;;;26.07;24.13;;;;;;;18.95;100.00;101507.64;2016351;70;24606;-68
2022/06/09 08:33:54;;;;;;;24.87;23.27;;;;;;;18.82;100.00;101515.05;2028356;70;24130;-69
2022/06/09 08:36:25;;;;;;;24.30;22.70;;;;;;;18.42;100.00;101516.11;2022609;70;24231;-68
2022/06/09 08:38:55;;;;;;;22.57;20.87;;;;;;;18.82;100.00;101512.80;2015401;70;24628;-68
2022/06/09 08:44:43;;;;;;;23.40;21.73;;;;;;;19.48;100.00;101518.73;2060791;69;30587;-68
2022/06/09 08:47:18;;;;;;;20.10;18.90;;;;;;;19.61;100.00;101517.77;2015599;70;26657;-68
2022/06/09 08:50:07;;;;;;;19.77;18.43;;;;;;;19.68;100.00;101531.38;2010973;70;26787;-68
2022/06/09 08:52:46;;;;;;;17.97;16.57;;;;;;;19.96;100.00;101528.48;1931911;73;24558;-68
2022/06/09 08:55:23;;;;;;;20.33;18.60;;;;;;;20.09;100.00;101528.05;2017198;71;24105;-69
2022/06/09 08:57:58;;;;;;;17.37;15.97;;;;;;;20.12;100.00;101524.56;2016664;70;24157;-69
2022/06/09 09:03:58;;;;;;;18.10;16.80;;;;;;;20.44;100.00;101520.66;2042421;69;30582;-69
2022/06/09 09:06:31;;;;;;;17.57;16.13;;;;;;;20.48;100.00;101527.87;1931394;73;24317;-69
2022/06/09 09:09:05;;;;;;;15.73;14.53;;;;;;;20.62;100.00;101526.27;1901845;74;24625;-69
2022/06/09 09:11:42;;;;;;;14.30;13.20;;;;;;;20.55;100.00;101531.00;1897261;74;24158;-69
2022/06/09 09:17:40;;;;;;;15.47;14.03;;;;;;;20.19;100.00;101537.02;2035671;69;30581;-69
2022/06/09 09:20:16;;;;;;;13.83;12.73;;;;;;;20.28;100.00;101538.42;2011437;70;24136;-69
2022/06/09 09:22:50;;;;;;;14.73;13.53;;;;;;;20.15;100.00;101535.20;2017074;70;24169;-69
2022/06/09 09:25:24;;;;;;;13.93;12.93;;;;;;;20.15;100.00;101538.02;2000207;70;24124;-69
2022/06/09 09:27:59;;;;;;;15.20;13.80;;;;;;;20.20;100.00;101542.89;2012821;70;24159;-69
2022/06/09 09:30:34;;;;;;;14.73;13.67;;;;;;;20.02;100.00;101539.85;2014410;70;26769;-69
2022/06/09 09:33:05;;;;;;;13.83;12.63;;;;;;;20.11;100.00;101544.08;2021849;70;24145;-69
2022/06/09 09:35:38;;;;;;;14.97;13.73;;;;;;;20.12;100.00;101542.32;2014815;70;24148;-69
2022/06/09 09:38:11;;;;;;;14.20;12.90;;;;;;;20.50;100.00;101548.68;2014058;70;24247;-69
2022/06/09 09:40:44;;;;;;;13.13;12.30;;;;;;;20.59;100.00;101539.04;2023924;70;24138;-69
2022/06/09 09:43:16;;;;;;;12.27;11.27;;;;;;;20.61;100.00;101536.72;2016486;71;24145;-69
2022/06/09 09:45:50;;;;;;;13.33;12.13;;;;;;;20.63;100.00;101542.84;1968524;72;24686;-69
2022/06/09 09:48:34;;;;;;;12.80;11.70;;;;;;;20.51;100.00;101546.11;2012489;71;24537;-69
2022/06/09 09:51:10;;;;;;;13.00;12.00;;;;;;;20.56;100.00;101539.72;1969226;72;24556;-69
2022/06/09 09:53:41;;;;;;;12.40;11.30;;;;;;;20.80;100.00;101537.14;2019821;70;24113;-69
2022/06/09 09:56:34;;;;;;;11.90;10.90;;;;;;;20.56;100.00;101535.48;1980925;72;24142;-69
2022/06/09 09:59:10;;;;;;;12.63;11.57;;;;;;;20.66;100.00;101533.72;1937488;74;24176;-69
2022/06/09 10:10:19;;;;;;;12.13;10.87;;;;;;;20.60;100.00;101537.88;1883458;75;24178;-68
2022/06/09 10:12:50;;;;;;;11.97;11.07;;;;;;;20.50;100.00;101545.28;1977755;72;24142;-69
2022/06/09 10:15:23;;;;;;;11.70;10.73;;;;;;;20.28;100.00;101549.70;1911182;74;24171;-69
2022/06/09 10:17:59;;;;;;;11.70;10.90;;;;;;;20.00;100.00;101554.85;1985370;71;24302;-69
2022/06/09 10:20:37;;;;;;;11.90;10.97;;;;;;;19.93;100.00;101565.81;1935471;73;24274;-69
2022/06/09 10:26:35;;;;;;;12.20;11.13;;;;;;;19.66;100.00;101564.11;2037041;69;30565;-69
2022/06/09 10:32:18;;;;;;;11.60;10.47;;;;;;;19.48;100.00;101579.32;2052639;69;30687;-69
2022/06/09 10:34:52;;;;;;;10.93;10.10;;;;;;;19.50;100.00;101577.85;1935712;73;26539;-69
2022/06/09 10:40:34;;;;;;;11.63;10.70;;;;;;;20.10;100.00;101565.81;2052661;69;30629;-67
2022/06/09 10:43:08;;;;;;;11.80;10.90;;;;;;;20.32;100.00;101576.13;2019237;70;24187;-67
2022/06/09 10:45:44;;;;;;;12.27;11.13;;;;;;;20.36;100.00;101577.12;2008822;70;24652;-67
2022/06/09 10:57:27;;;;;;;11.87;10.83;;;;;;;20.43;100.00;101571.20;2060352;69;30628;-69
2022/06/09 11:00:01;;;;;;;13.03;12.13;;;;;;;20.48;100.00;101570.78;2015162;70;24182;-69
2022/06/09 11:05:44;;;;;;;12.70;11.70;;;;;;;20.55;100.00;101571.92;2047470;69;30641;-69
2022/06/09 11:08:17;;;;;;;13.90;12.87;;;;;;;20.57;100.00;101573.02;1981924;70;24216;-68
2022/06/09 11:10:59;;;;;;;11.57;10.60;;;;;;;20.81;100.00;101570.45;1982455;72;24574;-69
2022/06/09 11:17:02;;;;;;;11.43;10.37;;;;;;;20.69;100.00;101577.38;2048797;69;33054;-69
2022/06/09 11:22:54;;;;;;;11.40;10.60;;;;;;;20.13;100.00;101582.64;2048819;69;30608;-69
2022/06/09 11:25:39;;;;;;;12.53;11.33;;;;;;;20.00;100.00;101580.23;2011837;70;24696;-69
2022/06/09 11:28:18;;;;;;;11.80;10.73;;;;;;;20.03;100.00;101577.32;2015436;70;26680;-69
2022/06/09 11:31:19;;;;;;;11.57;10.70;;;;;;;20.01;100.00;101577.67;2002109;70;24650;-69
2022/06/09 11:37:14;;;;;;;12.23;11.33;;;;;;;19.91;100.00;101584.46;2052944;69;30624;-69
2022/06/09 11:39:52;;;;;;;12.33;11.10;;;;;;;19.94;100.00;101592.25;2024689;70;24248;-69
2022/06/09 11:42:29;;;;;;;11.53;10.63;;;;;;;20.07;100.00;101583.38;2010640;70;26646;-69
2022/06/09 11:48:09;;;;;;;11.43;10.47;;;;;;;20.49;100.00;101591.62;2060671;69;31054;-69
2022/06/09 11:50:42;;;;;;;11.13;10.20;;;;;;;20.41;100.00;101598.09;2019168;70;24545;-69
2022/06/09 11:53:19;;;;;;;11.20;10.40;;;;;;;20.60;100.00;101591.52;1937384;74;24128;-69
2022/06/09 11:56:00;;;;;;;11.00;10.17;;;;;;;20.72;100.00;101590.24;1937418;74;24129;-67
2022/06/09 11:58:49;;;;;;;11.10;10.07;;;;;;;20.65;100.00;101591.92;1964847;72;26597;-69
2022/06/09 12:05:05;;;;;;;10.77;9.97;;;;;;;20.87;100.00;101586.89;2060480;69;30533;-69
2022/06/09 12:07:47;;;;;;;11.23;10.10;;;;;;;20.47;100.00;101595.35;1999298;70;24154;-69
2022/06/09 12:10:46;;;;;;;10.77;9.70;;;;;;;20.37;100.00;101592.28;1981665;72;24154;-69
2022/06/09 12:13:23;;;;;;;11.43;10.47;;;;;;;20.35;100.00;101599.44;1984324;72;24131;-69
2022/06/09 12:15:59;;;;;;;11.00;10.00;;;;;;;20.71;100.00;101597.05;1906796;75;24581;-69
2022/06/09 12:18:40;;;;;;;10.60;9.70;;;;;;;20.74;100.00;101604.03;1908161;75;24111;-68
2022/06/09 12:21:17;;;;;;;10.30;9.60;;;;;;;20.63;100.00;101596.48;1889600;74;24280;-68
2022/06/09 12:27:41;;;;;;;9.50;8.80;;;;;;;21.22;100.00;101592.45;2041453;69;30566;-67
2022/06/09 12:30:32;;;;;;;10.57;9.67;;;;;;;21.39;100.00;101599.44;1941649;73;24239;-67
2022/06/09 12:36:48;;;;;;;10.70;10.00;;;;;;;21.58;100.00;101599.81;2044564;69;33172;-68
2022/06/09 12:39:21;;;;;;;11.73;10.70;;;;;;;21.11;100.00;101596.77;2010594;70;24610;-68
2022/06/09 12:41:55;;;;;;;11.57;10.73;;;;;;;21.11;100.00;101603.83;1934079;73;24157;-70
2022/06/09 12:44:30;;;;;;;11.07;10.27;;;;;;;21.03;100.00;101595.64;1928549;73;24150;-68
2022/06/09 12:47:04;;;;;;;10.20;9.50;;;;;;;21.19;100.00;101597.34;2009385;70;24290;-69
2022/06/09 12:49:38;;;;;;;10.13;9.27;;;;;;;21.19;100.00;101594.52;1966084;72;24150;-68
2022/06/09 12:52:19;;;;;;;10.60;9.90;;;;;;;20.94;100.00;101599.07;1933810;73;24163;-68
2022/06/09 12:54:50;;;;;;;10.87;9.97;;;;;;;21.10;100.00;101613.46;1935379;73;24168;-68
2022/06/09 12:57:24;;;;;;;10.13;9.50;;;;;;;21.13;100.00;101616.50;1935655;73;24536;-68
2022/06/09 13:00:04;;;;;;;10.63;9.83;;;;;;;21.18;100.00;101619.11;2009595;70;26672;-68
2022/06/09 13:02:38;;;;;;;11.43;10.50;;;;;;;21.16;100.00;101634.76;2021660;70;24234;-68
2022/06/09 13:05:24;;;;;;;11.40;10.50;;;;;;;21.15;100.00;101626.87;2018805;70;24757;-68
2022/06/09 13:07:56;;;;;;;10.57;9.77;;;;;;;21.21;100.00;101624.69;1932984;73;24624;-68
2022/06/09 13:10:29;;;;;;;10.13;9.43;;;;;;;21.19;100.00;101619.37;1940939;73;24607;-68